EW7341 Weather Reports


Display with metric or nautical units.
time (UTC)temp
F
wind
direction
speed
MPH
gust
MPH
rain 1hr
in
rain 24hr
in
rain mn
in
humidity
%
barometer
mb
20260906213022 102 100 2.0 9.0 0.00 0.00 0.00 31 1006.4
20260906211517 102 150 5.0 12.0 0.00 0.00 0.00 30 1006.7
20260906210016 101 84 4.0 7.0 0.00 0.00 0.00 31 1007.0
20260906204514 101 162 4.0 14.0 0.00 0.00 0.00 31 1007.1
20260906203012 101 94 4.0 11.0 0.00 0.00 0.00 31 1007.2
20260906201510 101 79 2.0 8.0 0.00 0.00 0.00 32 1007.3
20260906200009 102 69 4.0 13.0 0.00 0.00 0.00 32 1007.7
20260906194507 100 134 2.0 9.0 0.00 0.00 0.00 33 1007.9
20260906193005 102 57 3.0 11.0 0.00 0.00 0.00 32 1008.0
20260906191505 100 122 7.0 13.0 0.00 0.00 0.00 33 1008.2
20260906190003 100 207 2.0 12.0 0.00 0.00 0.00 34 1008.4
20260906184601 99 140 5.0 11.0 0.00 0.00 0.00 36 1008.5
20260906183105 99 139 3.0 15.0 0.00 0.00 0.00 36 1008.8
20260906181557 99 115 6.0 13.0 0.00 0.00 0.00 35 1009.0
20260906180055 99 120 3.0 11.0 0.00 0.00 0.00 36 1009.2
20260906174553 98 104 4.0 9.0 0.00 0.00 0.00 38 1009.5
20260906173053 98 224 2.0 10.0 0.00 0.00 0.00 39 1009.8
20260906171554 97 58 3.0 9.0 0.00 0.00 0.00 40 1010.0
20260906170047 97 70 2.0 7.0 0.00 0.00 0.00 42 1010.2
20260906164545 96 85 3.0 8.0 0.00 0.00 0.00 42 1010.2
20260906163048 96 69 2.0 6.0 0.00 0.00 0.00 44 1010.4
20260906161542 95 61 0.0 5.0 0.00 0.00 0.00 44 1010.4
20260906160047 94 217 1.0 4.0 0.00 0.00 0.00 46 1010.4
20260906154546 93 136 0.0 1.0 0.00 0.00 0.00 48 1010.4
20260906153032 92 155 0.0 1.0 0.00 0.00 0.00 50 1010.3
20260906151528 91 113 0.0 2.0 0.00 0.00 0.00 52 1010.2
20260906150036 90 118 0.0 2.0 0.00 0.00 0.00 53 1010.1
20260906144526 88 113 0.0 2.0 0.00 0.00 0.00 56 1010.2
20260906143017 86 127 0.0 2.0 0.00 0.00 0.00 59 1010.2
20260906141515 85 96 0.0 4.0 0.00 0.00 0.00 62 1010.2
20260906140020 83 82 1.0 5.0 0.00 0.00 0.00 63 1010.3
20260906134527 83 126 0.0 1.0 0.00 0.00 0.00 63 1010.2
20260906133007 83 127 0.0 1.0 0.00 0.00 0.00 63 1010.1
20260906131507 82 129 0.0 1.0 0.00 0.00 0.00 66 1009.9
20260906130003 80 129 0.0 1.0 0.00 0.00 0.00 68 1009.7
20260906124500 77 129 0.0 0.0 0.00 0.00 0.00 72 1009.6
20260906123101 76 129 0.0 0.0 0.00 0.00 0.00 74 1009.5
20260906121557 76 130 0.0 0.0 0.00 0.00 0.00 74 1009.3
20260906120055 76 130 0.0 0.0 0.00 0.00 0.00 73 1009.0
20260906114605 76 130 0.0 0.0 0.00 0.00 0.00 72 1009.0
20260906113052 77 130 0.0 0.0 0.00 0.00 0.00 72 1008.7
20260906111553 77 130 0.0 0.0 0.00 0.00 0.00 71 1008.8
20260906110045 78 130 0.0 0.0 0.00 0.00 0.00 70 1008.6
20260906104556 78 130 0.0 0.0 0.00 0.00 0.00 68 1008.6
20260906103042 78 130 0.0 2.0 0.00 0.00 0.00 68 1008.5
20260906101542 78 138 0.0 0.0 0.00 0.00 0.00 68 1008.5
20260906100041 78 138 0.0 0.0 0.00 0.00 0.00 68 1008.4
20260906094539 78 138 0.0 0.0 0.00 0.00 0.00 67 1008.3
20260906093037 79 138 0.0 0.0 0.00 0.00 0.00 66 1008.3
20260906091537 79 138 0.0 0.0 0.00 0.00 0.00 66 1008.2
20260906090036 79 138 0.0 0.0 0.00 0.00 0.00 64 1008.1
20260906084530 80 138 0.0 0.0 0.00 0.00 0.00 63 1008.2
20260906083028 81 138 0.0 1.0 0.00 0.00 0.00 62 1008.1
20260906081527 81 138 0.0 0.0 0.00 0.00 0.00 62 1008.0
20260906080026 81 138 0.0 0.0 0.00 0.00 0.00 61 1008.1
20260906074528 82 138 0.0 0.0 0.00 0.00 0.00 60 1007.9
20260906073026 82 138 0.0 1.0 0.00 0.00 0.00 59 1008.1
20260906071525 83 138 0.0 2.0 0.00 0.00 0.00 58 1008.1
20260906070020 83 147 0.0 2.0 0.00 0.00 0.00 56 1008.0
20260906064519 84 150 1.0 5.0 0.00 0.00 0.00 55 1008.1
20260906063017 83 144 2.0 5.0 0.00 0.00 0.00 55 1008.2
20260906061518 82 133 1.0 4.0 0.00 0.00 0.00 56 1008.2
20260906060013 83 104 0.0 0.0 0.00 0.00 0.00 55 1008.2
20260906054512 83 104 0.0 0.0 0.00 0.00 0.00 55 1008.3
20260906053009 83 104 0.0 0.0 0.00 0.00 0.00 54 1008.2
20260906051507 83 104 0.0 0.0 0.00 0.00 0.00 54 1008.3
20260906050005 84 104 0.0 0.0 0.00 0.00 0.00 53 1008.2
20260906044505 84 104 0.0 0.0 0.00 0.00 0.00 52 1008.3
20260906043005 85 104 0.0 1.0 0.00 0.00 0.00 51 1008.3
20260906041506 86 103 0.0 3.0 0.00 0.00 0.00 50 1008.4
20260906040002 86 105 0.0 3.0 0.00 0.00 0.00 49 1008.4
20260906034601 86 111 0.0 2.0 0.00 0.00 0.00 49 1008.2
20260906033108 87 115 0.0 2.0 0.00 0.00 0.00 47 1008.2
20260906031600 87 85 0.0 5.0 0.00 0.00 0.00 47 1008.1
20260906030054 88 148 0.0 4.0 0.00 0.00 0.00 45 1007.7
20260906024601 89 129 0.0 1.0 0.00 0.00 0.00 44 1007.6
20260906023052 89 117 0.0 4.0 0.00 0.00 0.00 43 1007.4
20260906021554 90 139 0.0 3.0 0.00 0.00 0.00 43 1007.1
20260906020055 91 129 0.0 2.0 0.00 0.00 0.00 41 1006.9
20260906014557 92 129 0.0 4.0 0.00 0.00 0.00 40 1006.6
20260906013050 93 124 0.0 4.0 0.00 0.00 0.00 39 1006.2
20260906011549 94 129 0.0 4.0 0.00 0.00 0.00 37 1006.1
20260906010048 95 110 0.0 4.0 0.00 0.00 0.00 37 1006.1
20260906004547 96 128 1.0 6.0 0.00 0.00 0.00 35 1006.0
20260906003047 98 107 2.0 9.0 0.00 0.00 0.00 34 1005.9
20260906001547 99 124 2.0 8.0 0.00 0.00 0.00 33 1005.9
20260906000045 99 110 3.0 10.0 0.00 0.00 0.00 33 1005.7
20260905234552 99 100 3.0 11.0 0.00 0.00 0.00 32 1005.5
20260905233045 100 96 2.0 9.0 0.00 0.00 0.00 32 1005.4
20260905231547 100 125 5.0 9.0 0.00 0.00 0.00 32 1005.4
20260905230101 101 139 6.0 11.0 0.00 0.00 0.00 31 1005.4
20260905224543 101 119 1.0 7.0 0.00 0.00 0.00 31 1005.4
20260905223042 101 145 4.0 8.0 0.00 0.00 0.00 30 1005.5
20260905221542 101 163 3.0 7.0 0.00 0.00 0.00 31 1005.5
20260905220038 100 88 2.0 8.0 0.00 0.00 0.00 32 1005.7
20260905214537 100 120 2.0 9.0 0.00 0.00 0.00 32 1005.7